createdAt,value
2022-07-26T00:01:44.628Z,4.10
2022-07-26T00:04:12.576Z,4.07
2022-07-26T00:06:40.540Z,4.07
2022-07-26T00:09:08.611Z,3.85
2022-07-26T00:11:37.987Z,3.85
2022-07-26T00:14:07.656Z,3.92
2022-07-26T00:16:36.699Z,4.47
2022-07-26T00:19:05.177Z,4.13
2022-07-26T00:21:33.180Z,4.40
2022-07-26T00:24:00.848Z,4.13
2022-07-26T00:26:28.578Z,4.38
2022-07-26T00:28:57.600Z,4.43
2022-07-26T00:31:25.340Z,4.25
2022-07-26T00:33:53.115Z,4.05
2022-07-26T00:36:20.921Z,3.60
2022-07-26T00:38:48.598Z,4.47
2022-07-26T00:41:16.300Z,4.53
2022-07-26T00:43:55.710Z,4.63
2022-07-26T00:46:24.805Z,3.97
2022-07-26T00:48:52.746Z,4.03
2022-07-26T00:51:23.143Z,3.85
2022-07-26T00:53:51.219Z,4.00
2022-07-26T00:56:19.612Z,4.18
2022-07-26T00:58:47.263Z,3.63
2022-07-26T01:01:15.222Z,4.10
2022-07-26T01:03:44.415Z,4.03
2022-07-26T01:06:12.412Z,4.22
2022-07-26T01:08:40.180Z,3.55
2022-07-26T01:11:08.018Z,3.65
2022-07-26T01:13:35.853Z,3.78
2022-07-26T01:16:04.308Z,3.67
2022-07-26T01:18:32.056Z,3.78
2022-07-26T01:21:09.069Z,3.67
2022-07-26T01:23:43.635Z,3.95
2022-07-26T01:26:12.170Z,3.75
2022-07-26T01:28:42.254Z,3.70
2022-07-26T01:31:10.226Z,3.53
2022-07-26T01:33:38.082Z,3.35
2022-07-26T01:36:06.343Z,3.28
2022-07-26T01:38:34.133Z,3.08
2022-07-26T01:41:03.164Z,3.10
2022-07-26T01:43:30.916Z,3.45
2022-07-26T01:45:58.963Z,2.90
2022-07-26T01:48:26.808Z,2.80
2022-07-26T01:50:54.606Z,3.00
2022-07-26T01:53:22.336Z,3.05
2022-07-26T01:55:50.158Z,2.80
2022-07-26T01:58:19.209Z,3.00
2022-07-26T02:00:47.062Z,2.97
2022-07-26T02:03:14.850Z,2.55
2022-07-26T02:05:42.893Z,2.72
2022-07-26T02:08:11.807Z,2.85
2022-07-26T02:10:58.306Z,2.90
2022-07-26T02:13:28.195Z,2.75
2022-07-26T02:15:58.739Z,3.35
2022-07-26T02:18:27.570Z,2.72
2022-07-26T02:20:55.720Z,2.78
2022-07-26T02:23:24.177Z,2.88
2022-07-26T02:25:52.019Z,2.90
2022-07-26T02:28:20.100Z,2.90
2022-07-26T02:30:49.980Z,2.90
2022-07-26T02:33:19.221Z,2.90
2022-07-26T02:35:47.934Z,2.85
2022-07-26T02:38:16.992Z,3.00
2022-07-26T02:40:44.924Z,2.97
2022-07-26T02:43:13.142Z,2.40
2022-07-26T02:45:40.800Z,2.90
2022-07-26T02:48:09.893Z,2.92
2022-07-26T02:50:37.632Z,2.85
2022-07-26T02:53:05.364Z,3.28
2022-07-26T02:55:33.120Z,2.60
2022-07-26T02:58:00.864Z,2.88
2022-07-26T03:00:29.142Z,3.08
2022-07-26T03:02:57.597Z,3.03
2022-07-26T03:05:26.891Z,2.92
2022-07-26T03:07:54.823Z,3.10
2022-07-26T03:10:22.610Z,2.45
2022-07-26T03:12:50.508Z,2.83
2022-07-26T03:15:18.753Z,2.80
2022-07-26T03:17:46.636Z,3.20
2022-07-26T03:20:15.079Z,2.95
2022-07-26T03:22:44.355Z,2.83
2022-07-26T03:25:12.370Z,3.05
2022-07-26T03:27:40.215Z,2.63
2022-07-26T03:30:09.514Z,3.10
2022-07-26T03:32:37.456Z,2.78
2022-07-26T03:35:08.218Z,2.63
2022-07-26T03:37:45.143Z,3.25
2022-07-26T03:40:16.578Z,3.30
2022-07-26T03:42:44.754Z,3.33
2022-07-26T03:45:14.005Z,3.22
2022-07-26T03:47:42.376Z,3.10
2022-07-26T03:50:13.624Z,3.08
2022-07-26T03:52:42.084Z,2.83
2022-07-26T03:55:24.616Z,3.40
2022-07-26T03:57:53.763Z,3.55
2022-07-26T04:00:21.581Z,2.78
2022-07-26T04:02:49.278Z,3.17
2022-07-26T04:05:16.977Z,3.08
2022-07-26T04:07:53.315Z,3.22
2022-07-26T04:10:22.436Z,3.88
2022-07-26T04:12:50.716Z,3.15
2022-07-26T04:15:21.254Z,3.33
2022-07-26T04:17:49.375Z,3.25
2022-07-26T04:20:18.072Z,3.00
2022-07-26T04:22:46.020Z,3.58
2022-07-26T04:25:13.982Z,3.40
2022-07-26T04:27:41.645Z,3.53
2022-07-26T04:30:15.140Z,3.53
2022-07-26T04:32:46.366Z,3.42
2022-07-26T04:35:15.114Z,3.50
2022-07-26T04:37:47.527Z,3.60
2022-07-26T04:40:21.441Z,3.40
2022-07-26T04:42:51.858Z,3.38
2022-07-26T04:45:19.641Z,3.85
2022-07-26T04:47:50.660Z,3.30
2022-07-26T04:50:18.964Z,3.65
2022-07-26T04:52:46.813Z,3.90
2022-07-26T04:55:15.276Z,3.88
2022-07-26T04:57:43.088Z,3.13
2022-07-26T05:00:22.261Z,3.67
2022-07-26T05:02:55.117Z,4.10
2022-07-26T05:05:23.771Z,3.60
2022-07-26T05:07:54.148Z,3.40
2022-07-26T05:10:23.072Z,3.13
2022-07-26T05:12:50.876Z,4.18
2022-07-26T05:15:18.562Z,3.45
2022-07-26T05:17:46.667Z,3.80
2022-07-26T05:20:17.931Z,3.70
2022-07-26T05:22:45.599Z,3.03
2022-07-26T05:25:13.360Z,3.53
2022-07-26T05:27:41.768Z,3.58
2022-07-26T05:30:10.907Z,3.35
2022-07-26T05:32:38.854Z,3.22
2022-07-26T05:35:07.970Z,2.90
2022-07-26T05:37:37.420Z,3.10
2022-07-26T05:40:06.630Z,3.28
2022-07-26T05:42:34.363Z,3.33
2022-07-26T05:45:02.153Z,3.35
2022-07-26T05:47:30.410Z,3.30
2022-07-26T05:49:58.167Z,3.10
2022-07-26T05:52:25.923Z,3.17
2022-07-26T05:54:54.967Z,3.40
2022-07-26T05:57:22.711Z,3.15
2022-07-26T05:59:50.493Z,3.70
2022-07-26T06:02:18.315Z,3.30
2022-07-26T06:04:47.378Z,3.55
2022-07-26T06:07:15.597Z,3.40
2022-07-26T06:09:43.538Z,3.22
2022-07-26T06:12:12.681Z,3.58
2022-07-26T06:14:40.497Z,3.22
2022-07-26T06:17:08.216Z,3.45
2022-07-26T06:19:36.227Z,3.40
2022-07-26T06:22:04.568Z,2.95
2022-07-26T06:24:32.491Z,3.47
2022-07-26T06:27:05.054Z,3.15
2022-07-26T06:29:37.638Z,3.15
2022-07-26T06:34:58.558Z,3.63
2022-07-26T06:37:26.364Z,3.85
2022-07-26T06:39:54.053Z,3.63
2022-07-26T06:42:25.916Z,3.10
2022-07-26T06:44:54.947Z,3.38
2022-07-26T06:47:22.658Z,3.53
2022-07-26T06:49:50.444Z,3.65
2022-07-26T06:52:18.314Z,4.35
2022-07-26T06:54:46.247Z,3.78
2022-07-26T06:57:14.185Z,3.72
2022-07-26T06:59:41.898Z,4.28
2022-07-26T07:02:11.043Z,4.40
2022-07-26T07:04:38.887Z,4.43
2022-07-26T07:07:07.587Z,4.07
2022-07-26T07:09:37.520Z,4.28
2022-07-26T07:12:10.282Z,4.13
2022-07-26T07:14:39.138Z,3.92
2022-07-26T07:17:12.933Z,4.28
2022-07-26T07:19:43.125Z,4.00
2022-07-26T07:22:12.251Z,3.45
2022-07-26T07:24:41.078Z,3.47
2022-07-26T07:27:10.474Z,3.72
2022-07-26T07:29:39.004Z,3.13
2022-07-26T07:32:15.931Z,3.17
2022-07-26T07:34:48.513Z,3.15
2022-07-26T07:37:16.739Z,3.70
2022-07-26T07:39:44.643Z,2.88
2022-07-26T07:42:17.732Z,2.40
2022-07-26T07:44:45.577Z,2.70
2022-07-26T07:47:14.209Z,2.75
2022-07-26T07:49:42.019Z,2.75
2022-07-26T07:52:11.055Z,2.65
2022-07-26T07:54:39.271Z,2.53
2022-07-26T07:57:07.014Z,2.65
2022-07-26T07:59:39.104Z,2.90
2022-07-26T08:02:07.831Z,2.70
2022-07-26T08:04:35.762Z,2.58
2022-07-26T08:07:03.695Z,2.63
2022-07-26T08:09:33.877Z,3.30
2022-07-26T08:12:02.107Z,3.35
2022-07-26T08:14:29.985Z,2.90
2022-07-26T08:16:57.881Z,2.95
2022-07-26T08:19:25.998Z,3.53
2022-07-26T08:21:57.011Z,2.38
2022-07-26T08:24:24.955Z,2.72
2022-07-26T08:26:54.476Z,2.80
2022-07-26T08:29:25.259Z,2.47
2022-07-26T08:31:54.201Z,3.03
2022-07-26T08:34:22.613Z,3.05
2022-07-26T08:37:15.499Z,3.28
2022-07-26T08:39:38.136Z,2.63
2022-07-26T08:42:14.226Z,2.78
2022-07-26T08:44:43.513Z,2.83
2022-07-26T08:47:12.445Z,2.42
2022-07-26T08:49:40.538Z,2.80
2022-07-26T08:52:09.830Z,3.42
2022-07-26T08:54:38.264Z,3.85
2022-07-26T08:57:10.717Z,2.50
2022-07-26T08:59:38.605Z,2.60
2022-07-26T09:02:08.974Z,2.70
2022-07-26T09:04:43.831Z,3.33
2022-07-26T09:07:14.124Z,2.70
2022-07-26T09:09:58.075Z,2.85
2022-07-26T09:12:29.726Z,3.08
2022-07-26T09:14:58.200Z,3.13
2022-07-26T09:17:40.669Z,2.83
2022-07-26T09:20:11.269Z,2.60
2022-07-26T09:22:40.304Z,2.63
2022-07-26T09:25:21.957Z,2.30
2022-07-26T09:27:52.079Z,2.17
2022-07-26T09:30:21.059Z,2.83
2022-07-26T09:32:59.125Z,2.85
2022-07-26T09:38:15.940Z,2.70
2022-07-26T09:40:44.144Z,2.78
2022-07-26T09:43:19.791Z,2.80
2022-07-26T09:46:04.220Z,2.70
2022-07-26T09:48:52.163Z,3.13
2022-07-26T09:51:36.082Z,2.88
2022-07-26T09:54:04.281Z,3.33
2022-07-26T09:56:44.179Z,3.45
2022-07-26T09:59:14.032Z,2.92
2022-07-26T10:01:42.269Z,2.85
2022-07-26T10:04:10.489Z,2.83
2022-07-26T10:06:38.499Z,3.25
2022-07-26T10:09:07.153Z,3.75
2022-07-26T10:11:39.770Z,2.42
2022-07-26T10:14:40.879Z,3.08
2022-07-26T10:17:43.084Z,2.60
2022-07-26T10:20:19.355Z,2.72
2022-07-26T10:22:52.383Z,2.92
2022-07-26T10:25:48.747Z,2.72
2022-07-26T10:28:27.888Z,2.90
2022-07-26T10:31:29.470Z,3.13
2022-07-26T10:33:59.455Z,2.97
2022-07-26T10:36:30.419Z,2.33
2022-07-26T10:39:07.687Z,2.50
2022-07-26T10:41:38.354Z,2.30
2022-07-26T10:44:24.959Z,2.70
2022-07-26T10:47:19.486Z,3.00
2022-07-26T10:49:58.385Z,2.30
2022-07-26T10:52:28.415Z,2.30
2022-07-26T10:55:17.946Z,2.95
2022-07-26T10:57:48.212Z,2.55
2022-07-26T11:00:26.274Z,2.70
2022-07-26T11:02:58.768Z,3.30
2022-07-26T11:05:31.124Z,2.90
2022-07-26T11:08:08.507Z,2.92
2022-07-26T11:10:41.311Z,2.10
2022-07-26T11:13:17.466Z,2.28
2022-07-26T11:15:48.032Z,1.88
2022-07-26T11:18:20.004Z,2.40
2022-07-26T11:20:49.982Z,4.30
2022-07-26T11:23:33.496Z,3.67
2022-07-26T11:26:02.822Z,2.47
2022-07-26T11:28:30.849Z,2.53
2022-07-26T11:30:58.912Z,3.88
2022-07-26T11:33:41.623Z,4.05
2022-07-26T11:36:10.071Z,3.05
2022-07-26T11:38:48.674Z,3.28
2022-07-26T11:41:20.036Z,2.55
2022-07-26T11:44:02.518Z,3.10
2022-07-26T12:00:54.714Z,2.47
2022-07-26T12:03:25.843Z,2.70
2022-07-26T12:06:33.061Z,2.85
2022-07-26T12:12:51.891Z,2.90
2022-07-26T12:18:55.550Z,2.47
2022-07-26T12:21:43.864Z,2.60
2022-07-26T12:24:42.910Z,2.30
2022-07-26T12:27:13.264Z,2.58
2022-07-26T12:29:43.077Z,2.38
2022-07-26T12:32:17.538Z,2.58
2022-07-26T12:34:57.477Z,2.70
2022-07-26T12:37:37.608Z,2.88
2022-07-26T12:40:10.804Z,2.53
2022-07-26T12:42:40.570Z,2.80
2022-07-26T12:45:10.573Z,2.20
2022-07-26T12:47:41.869Z,2.55
2022-07-26T12:50:11.959Z,2.40
2022-07-26T12:52:40.807Z,2.60
2022-07-26T12:55:11.484Z,2.58
2022-07-26T12:57:39.205Z,2.75
2022-07-26T13:00:22.545Z,2.60
2022-07-26T13:02:56.179Z,2.42
2022-07-26T13:05:24.535Z,2.38
2022-07-26T13:07:52.622Z,2.53
2022-07-26T13:10:36.370Z,2.40
2022-07-26T13:13:04.375Z,2.90
2022-07-26T13:15:37.180Z,2.80
2022-07-26T13:18:08.779Z,2.60
2022-07-26T13:20:38.140Z,2.30
2022-07-26T13:23:06.054Z,2.58
2022-07-26T13:25:38.296Z,2.58
2022-07-26T13:30:47.388Z,2.30
2022-07-26T13:33:17.665Z,2.50
2022-07-26T13:35:45.736Z,2.33
2022-07-26T13:38:19.744Z,2.35
2022-07-26T13:40:47.856Z,2.60
2022-07-26T13:43:16.119Z,2.72
2022-07-26T13:45:44.334Z,2.33
2022-07-26T13:53:27.252Z,2.90
2022-07-26T13:55:55.015Z,2.70
2022-07-26T13:58:23.261Z,2.38
2022-07-26T14:00:51.461Z,2.70
2022-07-26T14:03:22.748Z,2.20
2022-07-26T14:05:50.990Z,2.00
2022-07-26T14:08:19.159Z,2.30
2022-07-26T14:10:48.524Z,2.17
2022-07-26T14:13:16.743Z,2.15
2022-07-26T14:15:45.254Z,2.30
2022-07-26T14:18:13.239Z,2.50
2022-07-26T14:20:41.467Z,2.50
2022-07-26T14:23:09.530Z,2.40
2022-07-26T14:25:37.904Z,2.22
2022-07-26T14:36:34.296Z,3.28
2022-07-26T14:39:03.253Z,2.67
2022-07-26T14:41:31.624Z,2.80
2022-07-26T14:46:53.747Z,2.83
2022-07-26T14:52:06.586Z,3.05
2022-07-26T14:54:34.401Z,2.97
2022-07-26T14:57:02.086Z,2.83
2022-07-26T14:59:29.799Z,2.78
2022-07-26T15:02:00.392Z,2.72
2022-07-26T15:04:31.621Z,2.83
2022-07-26T15:07:00.696Z,3.30
2022-07-26T15:09:29.796Z,3.25
2022-07-26T15:11:57.481Z,2.60
2022-07-26T15:14:25.472Z,2.67
2022-07-26T15:16:53.276Z,2.53
2022-07-26T15:19:25.355Z,2.70
2022-07-26T15:21:54.927Z,3.05
2022-07-26T15:24:23.194Z,2.90
2022-07-26T15:26:53.723Z,3.15
2022-07-26T15:29:21.972Z,2.53
2022-07-26T15:31:50.468Z,2.50
2022-07-26T15:34:18.421Z,2.38
2022-07-26T15:36:46.156Z,2.05
2022-07-26T15:39:17.323Z,2.67
2022-07-26T15:41:45.835Z,2.92
2022-07-26T15:44:16.812Z,2.30
2022-07-26T15:46:45.756Z,3.00
2022-07-26T15:49:16.882Z,3.17
2022-07-26T15:51:44.722Z,3.10
2022-07-26T15:54:15.130Z,2.70
2022-07-26T15:56:44.067Z,2.80
2022-07-26T15:59:11.849Z,2.90
2022-07-26T16:01:40.955Z,2.40
2022-07-26T16:05:11.813Z,2.60
2022-07-26T16:07:41.483Z,2.80
2022-07-26T16:10:10.754Z,2.55
2022-07-26T16:12:38.686Z,2.20
2022-07-26T16:15:07.914Z,2.78
2022-07-26T16:17:37.225Z,3.00
2022-07-26T16:20:05.851Z,2.60
2022-07-26T16:22:33.631Z,2.85
2022-07-26T16:25:01.380Z,2.90
2022-07-26T16:27:29.131Z,2.97
2022-07-26T16:30:15.557Z,2.65
2022-07-26T16:32:44.725Z,2.88
2022-07-26T16:35:12.982Z,2.78
2022-07-26T16:37:41.521Z,2.80
2022-07-26T16:40:10.371Z,2.83
2022-07-26T16:42:38.313Z,2.85
2022-07-26T16:45:06.651Z,3.15
2022-07-26T16:47:34.339Z,3.08
2022-07-26T16:50:03.413Z,3.47
2022-07-26T16:52:31.082Z,2.92
2022-07-26T16:54:59.028Z,3.35
2022-07-26T16:57:27.605Z,3.03
2022-07-26T16:59:55.287Z,2.78
2022-07-26T17:02:23.642Z,3.05
2022-07-26T17:04:52.171Z,2.90
2022-07-26T17:07:25.817Z,3.00
2022-07-26T17:09:54.517Z,3.50
2022-07-26T17:12:22.288Z,3.20
2022-07-26T17:14:50.044Z,3.35
2022-07-26T17:17:17.750Z,3.00
2022-07-26T17:19:45.505Z,3.03
2022-07-26T17:22:13.217Z,3.22
2022-07-26T17:24:42.286Z,2.80
2022-07-26T17:27:09.977Z,3.05
2022-07-26T17:29:37.709Z,3.00
2022-07-26T17:32:06.054Z,2.65
2022-07-26T17:34:33.788Z,3.30
2022-07-26T17:37:05.775Z,2.40
2022-07-26T17:39:52.352Z,2.70
2022-07-26T17:42:22.220Z,2.58
2022-07-26T17:44:50.436Z,2.78
2022-07-26T17:47:29.101Z,3.50
2022-07-26T17:50:14.095Z,2.60
2022-07-26T17:52:47.095Z,2.90
2022-07-26T17:55:14.774Z,2.55
2022-07-26T17:57:43.842Z,3.20
2022-07-26T18:00:12.870Z,2.90
2022-07-26T18:02:40.601Z,2.90
2022-07-26T18:05:08.859Z,2.70
2022-07-26T18:07:36.582Z,3.08
2022-07-26T18:10:05.537Z,3.45
2022-07-26T18:12:33.347Z,3.05
2022-07-26T18:15:02.408Z,3.35
2022-07-26T18:17:30.200Z,2.90
2022-07-26T18:19:57.858Z,3.17
2022-07-26T18:22:25.613Z,2.95
2022-07-26T18:24:53.311Z,3.00
2022-07-26T18:27:22.239Z,3.03
2022-07-26T18:29:50.435Z,3.45
2022-07-26T18:32:19.664Z,3.28
2022-07-26T18:34:51.965Z,3.22
2022-07-26T18:37:24.498Z,2.97
2022-07-26T18:39:57.360Z,3.20
2022-07-26T18:42:25.943Z,3.13
2022-07-26T18:44:53.925Z,2.60
2022-07-26T18:47:23.034Z,2.25
2022-07-26T18:49:51.441Z,2.78
2022-07-26T18:52:28.746Z,2.80
2022-07-26T18:55:02.016Z,3.03
2022-07-26T18:57:29.766Z,3.00
2022-07-26T18:59:57.813Z,3.10
2022-07-26T19:02:27.558Z,2.70
2022-07-26T19:04:55.309Z,3.05
2022-07-26T19:07:23.124Z,2.92
2022-07-26T19:09:56.413Z,3.13
2022-07-26T19:12:26.342Z,3.15
2022-07-26T19:14:54.030Z,3.00
2022-07-26T19:17:22.163Z,3.20
2022-07-26T19:19:51.322Z,3.13
2022-07-26T19:22:19.196Z,2.80
2022-07-26T19:24:48.653Z,2.85
2022-07-26T19:27:17.628Z,2.80
2022-07-26T19:29:45.465Z,3.00
2022-07-26T19:32:13.204Z,3.00
2022-07-26T19:34:41.225Z,2.60
2022-07-26T19:37:10.280Z,3.47
2022-07-26T19:39:38.011Z,2.83
2022-07-26T19:44:58.300Z,2.78
2022-07-26T19:47:26.705Z,2.80
2022-07-26T19:49:54.456Z,3.22
2022-07-26T19:52:23.862Z,2.65
2022-07-26T19:54:51.694Z,3.10
2022-07-26T19:57:19.823Z,3.55
2022-07-26T19:59:47.766Z,2.83
2022-07-26T20:02:16.016Z,3.17
2022-07-26T20:04:46.195Z,2.97
2022-07-26T20:07:19.772Z,2.88
2022-07-26T20:09:49.594Z,3.22
2022-07-26T20:12:18.347Z,3.15
2022-07-26T20:14:46.320Z,3.10
2022-07-26T20:17:15.366Z,2.97
2022-07-26T20:19:46.007Z,3.13
2022-07-26T20:22:13.769Z,3.08
2022-07-26T20:24:41.438Z,2.88
2022-07-26T20:27:10.575Z,3.20
2022-07-26T20:29:38.957Z,2.97
2022-07-26T20:32:07.346Z,3.60
2022-07-26T20:34:35.087Z,3.35
2022-07-26T20:37:05.340Z,3.10
2022-07-26T20:39:33.916Z,3.17
2022-07-26T20:42:01.768Z,3.30
2022-07-26T20:47:26.728Z,3.67
2022-07-26T20:49:57.274Z,3.08
2022-07-26T20:52:27.488Z,3.58
2022-07-26T20:54:55.159Z,3.00
2022-07-26T20:57:23.550Z,3.65
2022-07-26T20:59:52.787Z,3.35
2022-07-26T21:02:20.498Z,3.28
2022-07-26T21:04:48.217Z,3.40
2022-07-26T21:07:16.188Z,3.70
2022-07-26T21:09:43.947Z,3.53
2022-07-26T21:12:11.775Z,3.67
2022-07-26T21:14:39.494Z,3.45
2022-07-26T21:17:11.932Z,3.38
2022-07-26T21:19:40.113Z,3.50
2022-07-26T21:22:08.569Z,4.15
2022-07-26T21:24:36.939Z,3.95
2022-07-26T21:27:05.814Z,4.18
2022-07-26T21:29:39.267Z,4.05
2022-07-26T21:32:08.721Z,3.92
2022-07-26T21:34:36.545Z,3.97
2022-07-26T21:37:05.389Z,4.15
2022-07-26T21:39:33.705Z,3.65
2022-07-26T21:42:01.425Z,3.45
2022-07-26T21:44:29.116Z,3.65
2022-07-26T21:46:56.933Z,3.70
2022-07-26T21:49:26.094Z,4.10
2022-07-26T21:51:53.779Z,3.53
2022-07-26T21:54:21.516Z,3.92
2022-07-26T21:56:49.267Z,3.97
2022-07-26T21:59:17.062Z,4.00
2022-07-26T22:01:44.790Z,3.72
2022-07-26T22:04:12.462Z,3.58
2022-07-26T22:06:41.517Z,4.40
2022-07-26T22:09:10.338Z,3.80
2022-07-26T22:11:38.207Z,3.63
2022-07-26T22:14:08.245Z,3.20
2022-07-26T22:16:36.444Z,3.80
2022-07-26T22:19:04.305Z,4.05
2022-07-26T22:21:32.001Z,3.35
2022-07-26T22:24:01.369Z,3.72
2022-07-26T22:26:31.161Z,3.28
2022-07-26T22:28:59.114Z,3.75
2022-07-26T22:31:26.935Z,4.07
2022-07-26T22:33:54.729Z,3.85
2022-07-26T22:36:22.454Z,4.07
2022-07-26T22:38:50.124Z,3.70
2022-07-26T22:41:19.232Z,3.75
2022-07-26T22:43:46.934Z,3.75
2022-07-26T22:46:14.796Z,3.70
2022-07-26T22:48:47.814Z,3.95
2022-07-26T22:51:15.825Z,3.83
2022-07-26T22:53:43.478Z,4.28
2022-07-26T22:56:11.178Z,4.15
2022-07-26T22:58:40.743Z,3.90
2022-07-26T23:01:08.501Z,4.38
2022-07-26T23:03:36.230Z,4.20
2022-07-26T23:06:06.037Z,4.22
2022-07-26T23:08:53.654Z,3.42
2022-07-26T23:11:21.370Z,4.47
2022-07-26T23:13:50.473Z,4.07
2022-07-26T23:16:27.097Z,4.53
2022-07-26T23:18:55.545Z,3.47
2022-07-26T23:21:23.293Z,3.95
2022-07-26T23:23:50.976Z,3.20
2022-07-26T23:26:18.738Z,3.97
2022-07-26T23:28:46.827Z,3.83
2022-07-26T23:31:15.985Z,3.42
2022-07-26T23:33:50.755Z,3.58
2022-07-26T23:36:21.698Z,3.22
2022-07-26T23:38:49.377Z,3.30
2022-07-26T23:41:17.078Z,3.40
2022-07-26T23:43:44.818Z,3.53
2022-07-26T23:46:12.674Z,3.35
2022-07-26T23:48:41.846Z,2.90
2022-07-26T23:51:09.602Z,2.92
2022-07-26T23:53:37.377Z,2.88
2022-07-26T23:56:05.417Z,2.85
2022-07-26T23:58:33.213Z,3.17
